Terminal Aerodrome Forecast
Issued by NWS Portland, ME

Home | Current Version | Previous Version | Text Only | Print | Product List | Glossary On
Versions: 1 2 3 4 5 6 7 8 9 10 11 12 13 14 15 16 17 18 19
814
FTUS41 KGYX 242320
TAFCON
TAF
KCON 242320Z 2500/2524 VRB03KT P6SM SKC
     FM250700 00000KT P6SM FEW250 WS020/23030KT
     FM251600 18007KT P6SM FEW250=

USA.gov is the U.S. government's official web portal to all federal, state and local government web resources and services.